Time;durP1;ratioP1;P1;durP2;ratioP2;P2;SDS_P1;SDS_P2;PMS_P1;PMS_P2;Temp;Humidity;BMP_temperature;BMP_pressure;BME280_temperature;BME280_humidity;BME280_pressure;Samples;Min_cycle;Max_cycle;Signal;HPM_P1;HPM_P2
2022/11/22 00:02:11;;;;;;;33.67;16.80;;;;;;;;;;5002617;28;20150;-71
2022/11/22 00:04:37;;;;;;;30.08;15.43;;;;;;;;;;5003463;28;20523;-71
2022/11/22 00:07:02;;;;;;;31.77;14.80;;;;;;;;;;4991659;28;20063;-71
2022/11/22 00:09:28;;;;;;;26.45;14.38;;;;;;;;;;5025901;28;20874;-71
2022/11/22 00:11:54;;;;;;;30.85;15.45;;;;;;;;;;4995692;28;20079;-71
2022/11/22 00:14:19;;;;;;;32.30;17.02;;;;;;;;;;5005019;28;20877;-70
2022/11/22 00:16:47;;;;;;;31.83;17.17;;;;;;;;;;4983799;28;20045;-70
2022/11/22 00:19:16;;;;;;;34.85;17.50;;;;;;;;;;4992726;28;20041;-71
2022/11/22 00:21:45;;;;;;;42.70;20.13;;;;;;;;;;4981590;28;20032;-70
2022/11/22 00:24:15;;;;;;;44.25;21.35;;;;;;;;;;5009014;28;20039;-70
2022/11/22 00:26:40;;;;;;;42.25;21.35;;;;;;;;;;5002232;28;20073;-70
2022/11/22 00:29:06;;;;;;;35.13;19.13;;;;;;;;;;5004815;28;20072;-70
2022/11/22 00:31:34;;;;;;;44.08;19.38;;;;;;;;;;5019763;28;20152;-71
2022/11/22 00:34:04;;;;;;;62.95;24.52;;;;;;;;;;5004045;28;20122;-70
2022/11/22 00:36:32;;;;;;;47.78;22.15;;;;;;;;;;4999055;28;20603;-70
2022/11/22 00:38:58;;;;;;;46.17;21.40;;;;;;;;;;4998132;28;20033;-71
2022/11/22 00:41:30;;;;;;;62.17;24.48;;;;;;;;;;4999995;28;20041;-71
2022/11/22 00:43:56;;;;;;;63.33;22.45;;;;;;;;;;4993686;28;20040;-69
2022/11/22 00:46:23;;;;;;;61.97;23.85;;;;;;;;;;5001764;28;20037;-71
2022/11/22 00:48:51;;;;;;;45.80;20.23;;;;;;;;;;5003100;28;20933;-71
2022/11/22 00:51:16;;;;;;;58.78;24.05;;;;;;;;;;5004758;28;20037;-71
2022/11/22 00:53:43;;;;;;;51.80;23.02;;;;;;;;;;4999232;28;20044;-71
2022/11/22 00:56:10;;;;;;;38.25;19.27;;;;;;;;;;4984903;28;20033;-71
2022/11/22 00:58:36;;;;;;;64.63;25.63;;;;;;;;;;5002636;28;20037;-71
2022/11/22 01:01:03;;;;;;;55.00;22.92;;;;;;;;;;5017113;28;20087;-71
2022/11/22 01:03:29;;;;;;;70.18;26.33;;;;;;;;;;5002637;28;20179;-71
2022/11/22 01:05:54;;;;;;;47.25;23.75;;;;;;;;;;5026828;28;20805;-72
2022/11/22 01:08:20;;;;;;;68.03;26.95;;;;;;;;;;5003030;28;20147;-71
2022/11/22 01:10:45;;;;;;;43.20;22.02;;;;;;;;;;4986057;28;20107;-71
2022/11/22 01:13:11;;;;;;;64.28;24.90;;;;;;;;;;5001867;28;20670;-71
2022/11/22 01:15:38;;;;;;;84.30;30.60;;;;;;;;;;5001558;28;20049;-71
2022/11/22 01:18:05;;;;;;;51.95;23.80;;;;;;;;;;4987462;28;20045;-71
2022/11/22 01:20:38;;;;;;;46.28;23.33;;;;;;;;;;5002488;28;20827;-71
2022/11/22 01:23:03;;;;;;;46.40;23.30;;;;;;;;;;4999101;28;20063;-71
2022/11/22 01:25:29;;;;;;;65.00;27.52;;;;;;;;;;4994774;28;20044;-71
2022/11/22 01:28:00;;;;;;;57.05;28.88;;;;;;;;;;4980605;28;20052;-71
2022/11/22 01:30:25;;;;;;;61.42;29.52;;;;;;;;;;5000500;28;20029;-71
2022/11/22 01:32:56;;;;;;;64.50;27.63;;;;;;;;;;5002237;28;22326;-70
2022/11/22 01:35:27;;;;;;;74.50;30.33;;;;;;;;;;4977393;28;20065;-69
2022/11/22 01:37:56;;;;;;;65.88;27.45;;;;;;;;;;5001194;28;20029;-69
2022/11/22 01:40:21;;;;;;;52.15;25.70;;;;;;;;;;4984268;28;20933;-72
2022/11/22 01:42:54;;;;;;;41.58;23.65;;;;;;;;;;4981961;28;20722;-72
2022/11/22 01:45:29;;;;;;;46.47;23.08;;;;;;;;;;4976010;28;20037;-71
2022/11/22 01:47:58;;;;;;;58.67;24.23;;;;;;;;;;4980159;28;20088;-71
2022/11/22 01:50:24;;;;;;;83.68;29.65;;;;;;;;;;4983659;28;20043;-70
2022/11/22 01:52:49;;;;;;;50.30;22.63;;;;;;;;;;4972056;28;20088;-71
2022/11/22 01:55:14;;;;;;;58.00;22.38;;;;;;;;;;4985304;28;20037;-72
2022/11/22 01:57:42;;;;;;;80.75;26.63;;;;;;;;;;4981716;28;20072;-72
2022/11/22 02:00:09;;;;;;;57.78;23.75;;;;;;;;;;4997647;28;20038;-71
2022/11/22 02:02:34;;;;;;;61.28;24.40;;;;;;;;;;4980962;28;20041;-71
2022/11/22 02:05:01;;;;;;;84.38;27.65;;;;;;;;;;4979612;28;20029;-71
2022/11/22 02:07:40;;;;;;;59.08;22.42;;;;;;;;;;4981139;28;20073;-71
2022/11/22 02:10:05;;;;;;;50.17;22.10;;;;;;;;;;4978587;28;20044;-71
2022/11/22 02:12:33;;;;;;;66.72;24.35;;;;;;;;;;5013187;28;20053;-71
2022/11/22 02:14:58;;;;;;;53.63;20.27;;;;;;;;;;4983080;28;20053;-71
2022/11/22 02:17:26;;;;;;;47.08;20.45;;;;;;;;;;4993309;28;20078;-72
2022/11/22 02:19:52;;;;;;;53.63;19.40;;;;;;;;;;4994057;28;20068;-72
2022/11/22 02:22:23;;;;;;;57.45;20.88;;;;;;;;;;4982843;28;20608;-71
2022/11/22 02:24:53;;;;;;;54.35;19.73;;;;;;;;;;4986313;28;20046;-71
2022/11/22 02:27:18;;;;;;;46.50;17.00;;;;;;;;;;4980345;28;20072;-71
2022/11/22 02:29:44;;;;;;;54.88;18.25;;;;;;;;;;4981649;28;20968;-71
2022/11/22 02:32:09;;;;;;;47.67;15.98;;;;;;;;;;4982829;28;20049;-70
2022/11/22 02:34:53;;;;;;;55.03;16.80;;;;;;;;;;4982050;28;20485;-70
2022/11/22 02:37:24;;;;;;;30.92;12.57;;;;;;;;;;4981518;28;20448;-71
2022/11/22 02:39:55;;;;;;;35.45;12.73;;;;;;;;;;4979538;28;20057;-71
2022/11/22 02:42:22;;;;;;;30.20;12.32;;;;;;;;;;4984808;28;21277;-70
2022/11/22 02:44:48;;;;;;;44.55;15.05;;;;;;;;;;4979662;28;20075;-70
2022/11/22 02:47:16;;;;;;;39.40;13.90;;;;;;;;;;4967957;28;20863;-70
2022/11/22 02:49:45;;;;;;;33.88;12.63;;;;;;;;;;4976188;28;20733;-70
2022/11/22 02:52:15;;;;;;;48.00;15.05;;;;;;;;;;4985763;28;20114;-70
2022/11/22 02:54:41;;;;;;;39.33;12.50;;;;;;;;;;4979535;28;20048;-70
2022/11/22 02:57:06;;;;;;;35.30;11.68;;;;;;;;;;4971779;28;20394;-71
2022/11/22 02:59:32;;;;;;;23.80;9.57;;;;;;;;;;4976013;28;20137;-70
2022/11/22 03:02:00;;;;;;;31.17;10.70;;;;;;;;;;4986745;28;20071;-70
2022/11/22 03:04:33;;;;;;;28.60;10.10;;;;;;;;;;4978693;28;22295;-69
2022/11/22 03:06:59;;;;;;;30.63;9.70;;;;;;;;;;5002845;28;20060;-72
2022/11/22 03:09:29;;;;;;;29.75;10.35;;;;;;;;;;4981606;28;20037;-72
2022/11/22 03:11:57;;;;;;;29.40;9.52;;;;;;;;;;4980122;28;20112;-71
2022/11/22 03:14:22;;;;;;;29.98;9.63;;;;;;;;;;4979984;28;20037;-71
2022/11/22 03:16:48;;;;;;;23.25;9.25;;;;;;;;;;4982635;28;20037;-71
2022/11/22 03:19:13;;;;;;;34.88;9.88;;;;;;;;;;5011296;28;20030;-70
2022/11/22 03:21:39;;;;;;;24.35;8.27;;;;;;;;;;4980087;28;20061;-72
2022/11/22 03:24:05;;;;;;;37.17;10.52;;;;;;;;;;4979711;28;20046;-71
2022/11/22 03:26:35;;;;;;;27.98;9.23;;;;;;;;;;4979695;28;20045;-70
2022/11/22 03:29:01;;;;;;;34.42;10.75;;;;;;;;;;4980697;28;20820;-71
2022/11/22 03:31:27;;;;;;;27.83;9.07;;;;;;;;;;4981073;28;20049;-71
2022/11/22 03:33:52;;;;;;;36.22;10.30;;;;;;;;;;4980399;28;20037;-77
2022/11/22 03:36:18;;;;;;;28.65;9.68;;;;;;;;;;4980656;28;20048;-76
2022/11/22 03:38:43;;;;;;;36.88;11.25;;;;;;;;;;4971667;28;20049;-77
2022/11/22 03:41:11;;;;;;;34.63;10.73;;;;;;;;;;4976742;28;20896;-75
2022/11/22 03:43:36;;;;;;;38.17;11.32;;;;;;;;;;4981338;28;20144;-76
2022/11/22 03:46:02;;;;;;;24.95;8.80;;;;;;;;;;4978553;28;20138;-76
2022/11/22 03:48:28;;;;;;;28.75;8.45;;;;;;;;;;4979320;28;20045;-71
2022/11/22 03:50:53;;;;;;;34.78;9.80;;;;;;;;;;4978481;28;20166;-71
2022/11/22 03:53:18;;;;;;;37.75;8.75;;;;;;;;;;4979675;28;20069;-71
2022/11/22 03:55:44;;;;;;;32.28;8.80;;;;;;;;;;4974381;28;20100;-70
2022/11/22 03:58:12;;;;;;;37.30;12.23;;;;;;;;;;4980461;28;20140;-71
2022/11/22 04:00:37;;;;;;;43.83;16.08;;;;;;;;;;4980960;28;20343;-70
2022/11/22 04:03:03;;;;;;;46.13;20.55;;;;;;;;;;4990419;28;20029;-71
2022/11/22 04:05:28;;;;;;;41.88;18.48;;;;;;;;;;4992860;28;20301;-71
2022/11/22 04:07:59;;;;;;;30.63;8.75;;;;;;;;;;5011929;28;22022;-70
2022/11/22 04:10:26;;;;;;;24.10;6.65;;;;;;;;;;4998991;28;21184;-71
2022/11/22 04:12:55;;;;;;;21.23;6.25;;;;;;;;;;5005226;28;20033;-70
2022/11/22 04:15:23;;;;;;;28.98;5.80;;;;;;;;;;5014406;28;20209;-70
2022/11/22 04:17:48;;;;;;;24.10;6.40;;;;;;;;;;5003039;28;21709;-71
2022/11/22 04:23:05;;;;;;;26.42;6.72;;;;;;;;;;5011723;28;20376;-71
2022/11/22 04:25:32;;;;;;;26.95;6.57;;;;;;;;;;5011150;28;20029;-71
2022/11/22 04:27:58;;;;;;;23.38;6.18;;;;;;;;;;4981118;28;20092;-71
2022/11/22 04:32:44;;;;;;;23.80;6.22;;;;;;;;;;4981633;28;20137;-70
2022/11/22 04:33:09;;;;;;;29.17;6.88;;;;;;;;;;4983389;28;20820;-70
2022/11/22 04:35:35;;;;;;;23.83;5.43;;;;;;;;;;4983139;28;20137;-69
2022/11/22 04:38:02;;;;;;;28.73;7.30;;;;;;;;;;4997183;28;20984;-71
2022/11/22 04:40:27;;;;;;;29.35;7.00;;;;;;;;;;4991443;28;20029;-70
2022/11/22 04:45:37;;;;;;;20.05;5.03;;;;;;;;;;4989526;28;20230;-70
2022/11/22 04:48:03;;;;;;;28.50;6.35;;;;;;;;;;4981516;28;20127;-70
2022/11/22 04:53:15;;;;;;;33.72;8.60;;;;;;;;;;4980680;28;21143;-75
2022/11/22 04:55:41;;;;;;;60.38;13.77;;;;;;;;;;4983905;28;20741;-76
2022/11/22 04:58:06;;;;;;;35.58;8.90;;;;;;;;;;4979527;28;20038;-76
2022/11/22 05:00:32;;;;;;;34.22;8.45;;;;;;;;;;4981285;28;20100;-75
2022/11/22 05:03:01;;;;;;;38.03;9.85;;;;;;;;;;4981501;28;21190;-77
2022/11/22 05:05:27;;;;;;;34.47;8.48;;;;;;;;;;4984939;28;20092;-76
2022/11/22 05:07:55;;;;;;;36.60;7.95;;;;;;;;;;4984792;28;20041;-75
2022/11/22 05:10:22;;;;;;;29.58;7.38;;;;;;;;;;4982754;28;20029;-76
2022/11/22 05:12:48;;;;;;;27.98;7.25;;;;;;;;;;4997197;28;20052;-76
2022/11/22 05:15:16;;;;;;;27.90;6.78;;;;;;;;;;5006026;28;20826;-68
2022/11/22 05:17:41;;;;;;;20.35;4.68;;;;;;;;;;5001817;28;20455;-71
2022/11/22 05:20:08;;;;;;;19.73;5.45;;;;;;;;;;5003872;28;20041;-69
2022/11/22 05:25:17;;;;;;;26.52;6.72;;;;;;;;;;4999531;28;20038;-70
2022/11/22 05:27:42;;;;;;;26.00;6.00;;;;;;;;;;5034437;28;20037;-70
2022/11/22 05:30:08;;;;;;;22.95;5.97;;;;;;;;;;5000088;28;20037;-75
2022/11/22 05:32:34;;;;;;;32.75;7.90;;;;;;;;;;5000842;28;20051;-75
2022/11/22 05:34:59;;;;;;;22.27;6.72;;;;;;;;;;5000926;28;20068;-76
2022/11/22 05:37:26;;;;;;;31.67;9.27;;;;;;;;;;4994777;28;20107;-77
2022/11/22 05:39:51;;;;;;;21.33;6.93;;;;;;;;;;4980477;28;20128;-75
2022/11/22 05:42:16;;;;;;;19.23;6.55;;;;;;;;;;4982604;28;20048;-76
2022/11/22 05:44:44;;;;;;;23.45;5.80;;;;;;;;;;4982187;28;20052;-75
2022/11/22 05:47:09;;;;;;;26.85;7.05;;;;;;;;;;4978770;28;20706;-76
2022/11/22 05:49:35;;;;;;;30.30;8.70;;;;;;;;;;4979966;28;20030;-79
2022/11/22 05:52:01;;;;;;;38.15;8.60;;;;;;;;;;4982022;28;20144;-76
2022/11/22 05:54:29;;;;;;;25.58;7.05;;;;;;;;;;4992721;28;20094;-76
2022/11/22 05:56:55;;;;;;;38.63;8.35;;;;;;;;;;4992287;28;20037;-75
2022/11/22 05:59:20;;;;;;;29.83;8.07;;;;;;;;;;4981556;28;20034;-76
2022/11/22 06:01:45;;;;;;;21.52;5.88;;;;;;;;;;5012337;28;20116;-76
2022/11/22 06:04:11;;;;;;;39.67;9.57;;;;;;;;;;4985585;28;20080;-76
2022/11/22 06:06:37;;;;;;;25.05;8.15;;;;;;;;;;5001951;28;20114;-75
2022/11/22 06:09:03;;;;;;;26.63;7.30;;;;;;;;;;5001583;28;20593;-76
2022/11/22 06:11:28;;;;;;;33.08;9.13;;;;;;;;;;4998425;28;20040;-79
2022/11/22 06:13:58;;;;;;;52.20;12.82;;;;;;;;;;4999064;28;20045;-77
2022/11/22 06:16:25;;;;;;;24.85;7.63;;;;;;;;;;4993328;28;20124;-77
2022/11/22 06:18:54;;;;;;;38.80;9.95;;;;;;;;;;4999124;28;20045;-73
2022/11/22 06:21:23;;;;;;;23.10;7.65;;;;;;;;;;4997769;28;20041;-71
2022/11/22 06:23:49;;;;;;;22.40;7.35;;;;;;;;;;4996185;28;20146;-73
2022/11/22 06:26:17;;;;;;;26.50;8.20;;;;;;;;;;4991264;28;20812;-73
2022/11/22 06:28:43;;;;;;;26.42;8.18;;;;;;;;;;4961827;28;20145;-73
2022/11/22 06:31:10;;;;;;;19.55;7.22;;;;;;;;;;4978001;28;20072;-73
2022/11/22 06:33:38;;;;;;;23.20;8.13;;;;;;;;;;4991217;28;20203;-73
2022/11/22 06:36:04;;;;;;;27.85;9.27;;;;;;;;;;4997250;28;20646;-73
2022/11/22 06:38:30;;;;;;;48.85;12.55;;;;;;;;;;5001158;28;20044;-73
2022/11/22 06:41:02;;;;;;;30.17;9.52;;;;;;;;;;5002691;28;20043;-74
2022/11/22 06:43:29;;;;;;;33.33;10.18;;;;;;;;;;5002084;28;20037;-72
2022/11/22 06:45:55;;;;;;;31.65;9.27;;;;;;;;;;4992668;28;20098;-76
2022/11/22 06:48:20;;;;;;;21.80;9.52;;;;;;;;;;4980505;28;21104;-75
2022/11/22 06:50:46;;;;;;;19.50;8.23;;;;;;;;;;4981452;28;20037;-74
2022/11/22 06:53:11;;;;;;;19.05;7.72;;;;;;;;;;4978468;28;20037;-74
2022/11/22 06:55:36;;;;;;;22.77;10.02;;;;;;;;;;4981157;28;20639;-74
2022/11/22 06:58:02;;;;;;;36.83;15.45;;;;;;;;;;4980631;28;20095;-75
2022/11/22 07:00:27;;;;;;;33.90;14.75;;;;;;;;;;4980546;28;20145;-75
2022/11/22 07:02:53;;;;;;;46.80;20.65;;;;;;;;;;4995439;28;20041;-73
2022/11/22 07:05:18;;;;;;;40.97;20.77;;;;;;;;;;4977966;28;20079;-74
2022/11/22 07:07:43;;;;;;;34.63;18.00;;;;;;;;;;4982148;28;20071;-73
2022/11/22 07:10:09;;;;;;;29.85;15.05;;;;;;;;;;4992831;28;20165;-72
2022/11/22 07:12:34;;;;;;;34.15;16.38;;;;;;;;;;4978804;28;20056;-72
2022/11/22 07:15:00;;;;;;;44.88;20.75;;;;;;;;;;4981764;28;20042;-73
2022/11/22 07:17:25;;;;;;;37.67;19.20;;;;;;;;;;4984167;28;20114;-73
2022/11/22 07:19:51;;;;;;;28.70;15.05;;;;;;;;;;4982183;28;20038;-72
2022/11/22 07:22:16;;;;;;;24.05;13.77;;;;;;;;;;4982782;28;20037;-76
2022/11/22 07:24:41;;;;;;;28.15;13.90;;;;;;;;;;4981010;28;20071;-73
2022/11/22 07:27:06;;;;;;;29.98;13.25;;;;;;;;;;4982051;28;20113;-74
2022/11/22 07:29:32;;;;;;;45.75;19.30;;;;;;;;;;4981653;28;20042;-74
2022/11/22 07:31:57;;;;;;;39.80;18.25;;;;;;;;;;4975675;28;20070;-73
2022/11/22 07:34:25;;;;;;;36.65;17.02;;;;;;;;;;4982773;28;20033;-72
2022/11/22 07:36:50;;;;;;;38.40;16.63;;;;;;;;;;4980082;28;21234;-73
2022/11/22 07:39:16;;;;;;;31.13;16.55;;;;;;;;;;4980762;28;20037;-71
2022/11/22 07:41:41;;;;;;;37.15;17.60;;;;;;;;;;4981151;28;20042;-72
2022/11/22 07:44:09;;;;;;;38.88;19.25;;;;;;;;;;4982405;28;20042;-73
2022/11/22 07:46:34;;;;;;;42.63;18.50;;;;;;;;;;5009646;28;20156;-74
2022/11/22 07:49:00;;;;;;;30.85;17.90;;;;;;;;;;4980983;28;20055;-72
2022/11/22 07:51:26;;;;;;;35.85;17.58;;;;;;;;;;4977016;28;20122;-74
2022/11/22 07:53:52;;;;;;;28.27;15.68;;;;;;;;;;4980629;28;21146;-74
2022/11/22 07:56:18;;;;;;;26.23;13.48;;;;;;;;;;5009674;28;20048;-72
2022/11/22 07:58:43;;;;;;;35.13;14.82;;;;;;;;;;4980074;28;20069;-75
2022/11/22 08:01:10;;;;;;;31.00;14.85;;;;;;;;;;4977858;28;20521;-72
2022/11/22 08:03:36;;;;;;;32.35;17.10;;;;;;;;;;4986079;28;20222;-73
2022/11/22 08:06:02;;;;;;;26.80;12.68;;;;;;;;;;4994010;28;20056;-73
2022/11/22 08:08:30;;;;;;;20.55;11.35;;;;;;;;;;5010382;28;20590;-74
2022/11/22 08:10:56;;;;;;;23.55;10.88;;;;;;;;;;4964777;28;20052;-74
2022/11/22 08:13:22;;;;;;;23.80;11.02;;;;;;;;;;4984209;28;20033;-74
2022/11/22 08:15:48;;;;;;;34.63;13.23;;;;;;;;;;4980464;28;20044;-74
2022/11/22 08:18:14;;;;;;;55.70;18.35;;;;;;;;;;4992785;28;20115;-74
2022/11/22 08:20:41;;;;;;;29.88;12.00;;;;;;;;;;4986352;28;20911;-73
2022/11/22 08:23:07;;;;;;;24.02;11.40;;;;;;;;;;4983117;28;20033;-73
2022/11/22 08:25:32;;;;;;;33.17;12.60;;;;;;;;;;4983447;28;20068;-73
2022/11/22 08:27:58;;;;;;;35.80;12.90;;;;;;;;;;4983262;28;20790;-73
2022/11/22 08:30:23;;;;;;;30.55;11.20;;;;;;;;;;4983702;28;20833;-74
2022/11/22 08:32:50;;;;;;;30.35;11.30;;;;;;;;;;4983532;28;20068;-72
2022/11/22 08:35:15;;;;;;;42.30;13.05;;;;;;;;;;4979655;28;20113;-75
2022/11/22 08:37:41;;;;;;;44.97;15.40;;;;;;;;;;4999571;28;20056;-72
2022/11/22 08:40:08;;;;;;;56.13;18.95;;;;;;;;;;5001543;28;20052;-72
2022/11/22 08:42:34;;;;;;;30.92;12.45;;;;;;;;;;5000682;28;20468;-71
2022/11/22 08:44:59;;;;;;;24.90;10.48;;;;;;;;;;4997735;28;20043;-71
2022/11/22 08:47:24;;;;;;;22.48;10.43;;;;;;;;;;5001707;28;20041;-74
2022/11/22 08:49:50;;;;;;;30.52;12.40;;;;;;;;;;4998571;28;20247;-70
2022/11/22 08:52:18;;;;;;;35.22;15.00;;;;;;;;;;4997941;28;20052;-73
2022/11/22 08:54:43;;;;;;;34.53;16.80;;;;;;;;;;4979914;28;20874;-72
2022/11/22 08:57:08;;;;;;;31.20;13.85;;;;;;;;;;4982278;28;20119;-74
2022/11/22 08:59:36;;;;;;;32.10;13.70;;;;;;;;;;4983827;28;20056;-73
2022/11/22 09:02:01;;;;;;;37.92;13.70;;;;;;;;;;4976560;28;20042;-73
2022/11/22 09:04:27;;;;;;;22.05;10.23;;;;;;;;;;4983408;28;20199;-73
2022/11/22 09:07:13;;;;;;;28.55;10.75;;;;;;;;;;4956804;28;20078;-73
2022/11/22 09:09:56;;;;;;;23.67;9.55;;;;;;;;;;4928695;28;20047;-69
2022/11/22 09:15:25;;;;;;;24.10;10.13;;;;;;;;;;4977623;28;20117;-72
2022/11/22 09:17:53;;;;;;;24.20;11.07;;;;;;;;;;4984874;28;20206;-72
2022/11/22 09:20:19;;;;;;;28.88;11.35;;;;;;;;;;4981222;28;20044;-73
2022/11/22 09:22:44;;;;;;;29.08;11.95;;;;;;;;;;4978301;28;20471;-73
2022/11/22 09:25:09;;;;;;;27.38;11.65;;;;;;;;;;4978702;28;20262;-72
2022/11/22 09:27:35;;;;;;;27.52;11.85;;;;;;;;;;4981792;28;20037;-75
2022/11/22 09:30:00;;;;;;;21.63;10.25;;;;;;;;;;4979191;28;20322;-72
2022/11/22 09:32:26;;;;;;;30.10;10.75;;;;;;;;;;4966347;28;20084;-75
2022/11/22 09:34:51;;;;;;;16.50;7.75;;;;;;;;;;4979571;28;20717;-75
2022/11/22 09:37:18;;;;;;;22.38;9.30;;;;;;;;;;4976924;28;20391;-74
2022/11/22 09:39:47;;;;;;;25.65;10.48;;;;;;;;;;5004768;28;20118;-74
2022/11/22 09:42:21;;;;;;;26.02;11.45;;;;;;;;;;4998472;28;20369;-74
2022/11/22 09:44:55;;;;;;;19.70;9.98;;;;;;;;;;5015142;28;20394;-75
2022/11/22 09:47:20;;;;;;;22.98;10.55;;;;;;;;;;4997741;28;20138;-74
2022/11/22 09:50:08;;;;;;;22.35;10.55;;;;;;;;;;4991743;28;20052;-74
2022/11/22 09:52:33;;;;;;;26.90;11.90;;;;;;;;;;4996799;28;20049;-75
2022/11/22 09:55:02;;;;;;;22.63;9.70;;;;;;;;;;4999822;28;20068;-74
2022/11/22 09:57:30;;;;;;;25.58;9.30;;;;;;;;;;4999908;28;20193;-74
2022/11/22 10:00:07;;;;;;;26.67;10.68;;;;;;;;;;4998175;28;20424;-73
2022/11/22 10:02:35;;;;;;;23.80;10.30;;;;;;;;;;4996248;28;20057;-74
2022/11/22 10:05:04;;;;;;;21.65;9.05;;;;;;;;;;5029294;28;20041;-73
2022/11/22 10:07:49;;;;;;;20.25;9.50;;;;;;;;;;4998045;28;20457;-72
2022/11/22 10:10:17;;;;;;;26.20;9.82;;;;;;;;;;4990758;28;20033;-73
2022/11/22 10:12:46;;;;;;;18.50;8.35;;;;;;;;;;4995893;28;20268;-73
2022/11/22 10:15:18;;;;;;;20.40;8.30;;;;;;;;;;4996891;28;20283;-74
2022/11/22 10:17:43;;;;;;;33.63;11.63;;;;;;;;;;4997428;28;20048;-76
2022/11/22 10:20:17;;;;;;;29.92;12.32;;;;;;;;;;4996855;28;20413;-73
2022/11/22 10:22:43;;;;;;;16.08;8.13;;;;;;;;;;4997089;28;20033;-74
2022/11/22 10:25:19;;;;;;;28.85;11.57;;;;;;;;;;4997099;28;20029;-72
2022/11/22 10:28:04;;;;;;;25.67;9.77;;;;;;;;;;4998421;28;20167;-73
2022/11/22 10:30:34;;;;;;;20.75;8.65;;;;;;;;;;4996884;28;20207;-73
2022/11/22 10:33:09;;;;;;;28.83;11.80;;;;;;;;;;4985291;28;20312;-72
2022/11/22 10:35:37;;;;;;;39.05;12.93;;;;;;;;;;4988391;28;20048;-72
2022/11/22 10:38:21;;;;;;;23.77;9.00;;;;;;;;;;4978808;28;20504;-73
2022/11/22 10:40:50;;;;;;;24.05;8.63;;;;;;;;;;4973814;28;20306;-74
2022/11/22 10:43:34;;;;;;;40.72;13.95;;;;;;;;;;4978388;28;20658;-74
2022/11/22 10:46:12;;;;;;;15.40;7.38;;;;;;;;;;4979320;28;20049;-76
2022/11/22 10:48:45;;;;;;;21.50;9.23;;;;;;;;;;4976745;28;20105;-73
2022/11/22 10:51:15;;;;;;;30.98;11.88;;;;;;;;;;4979733;28;22322;-73
2022/11/22 10:53:50;;;;;;;37.38;14.35;;;;;;;;;;4967621;28;20439;-72
2022/11/22 10:56:25;;;;;;;24.52;10.13;;;;;;;;;;4996686;28;20564;-72
2022/11/22 10:58:59;;;;;;;24.25;9.43;;;;;;;;;;4988568;28;20034;-72
2022/11/22 11:01:25;;;;;;;29.63;10.40;;;;;;;;;;4972772;28;20683;-71
2022/11/22 11:03:53;;;;;;;47.83;16.27;;;;;;;;;;4974266;28;20041;-73
2022/11/22 11:06:24;;;;;;;24.38;9.68;;;;;;;;;;5016614;28;20155;-72
2022/11/22 11:08:54;;;;;;;14.60;5.75;;;;;;;;;;4988694;28;20033;-73
2022/11/22 11:11:23;;;;;;;41.63;13.50;;;;;;;;;;4993622;28;20262;-72
2022/11/22 11:13:55;;;;;;;27.27;10.25;;;;;;;;;;5015293;28;20516;-72
2022/11/22 11:16:25;;;;;;;24.60;9.40;;;;;;;;;;4997004;28;20025;-72
2022/11/22 11:18:53;;;;;;;32.97;10.93;;;;;;;;;;5018069;28;20205;-72
2022/11/22 11:21:18;;;;;;;23.13;9.18;;;;;;;;;;4996036;28;20146;-72
2022/11/22 11:23:44;;;;;;;12.98;5.88;;;;;;;;;;5009776;28;20956;-72
2022/11/22 11:26:29;;;;;;;24.27;7.78;;;;;;;;;;4993349;28;22274;-72
2022/11/22 11:29:13;;;;;;;21.30;7.75;;;;;;;;;;4998719;28;20033;-72
2022/11/22 11:31:49;;;;;;;28.30;9.85;;;;;;;;;;4997991;28;20106;-71
2022/11/22 11:34:34;;;;;;;23.30;9.18;;;;;;;;;;4978775;28;20132;-72
2022/11/22 11:37:00;;;;;;;23.80;8.77;;;;;;;;;;4972813;28;20265;-72
2022/11/22 11:39:33;;;;;;;23.67;9.32;;;;;;;;;;4977727;28;20324;-72
2022/11/22 11:41:59;;;;;;;28.33;10.80;;;;;;;;;;4972683;28;20247;-71
2022/11/22 11:44:27;;;;;;;14.23;6.25;;;;;;;;;;4980188;28;20060;-71
2022/11/22 11:46:55;;;;;;;31.55;11.45;;;;;;;;;;4979967;28;20321;-72
2022/11/22 11:49:23;;;;;;;16.38;5.90;;;;;;;;;;4983662;28;20568;-74
2022/11/22 11:51:52;;;;;;;23.63;10.23;;;;;;;;;;4981186;28;20049;-72
2022/11/22 11:54:19;;;;;;;20.20;8.20;;;;;;;;;;4979691;28;21765;-72
2022/11/22 11:56:55;;;;;;;24.83;10.20;;;;;;;;;;4977885;28;20535;-72
2022/11/22 11:59:21;;;;;;;26.15;9.73;;;;;;;;;;4977730;28;20044;-73
2022/11/22 12:01:49;;;;;;;27.13;9.45;;;;;;;;;;4978396;28;20361;-72
2022/11/22 12:04:18;;;;;;;25.38;9.95;;;;;;;;;;4981903;28;20042;-70
2022/11/22 12:06:51;;;;;;;16.00;7.32;;;;;;;;;;4981414;28;20037;-72
2022/11/22 12:09:27;;;;;;;21.25;7.65;;;;;;;;;;4981515;28;20077;-72
2022/11/22 12:11:57;;;;;;;10.43;4.88;;;;;;;;;;4979909;28;20068;-72
2022/11/22 12:14:24;;;;;;;14.10;5.90;;;;;;;;;;4978567;28;20044;-71
2022/11/22 12:16:53;;;;;;;16.73;5.15;;;;;;;;;;4977035;28;20037;-73
2022/11/22 12:19:22;;;;;;;18.17;6.78;;;;;;;;;;4979923;28;20128;-72
2022/11/22 12:22:06;;;;;;;11.73;5.68;;;;;;;;;;4978389;28;20046;-72
2022/11/22 12:24:32;;;;;;;17.33;6.95;;;;;;;;;;4982061;28;20465;-72
2022/11/22 12:26:57;;;;;;;13.82;5.05;;;;;;;;;;4974773;28;20053;-72
2022/11/22 12:29:23;;;;;;;16.25;6.75;;;;;;;;;;4970798;28;20044;-70
2022/11/22 12:31:52;;;;;;;23.70;8.88;;;;;;;;;;4978617;28;20112;-72
2022/11/22 12:34:25;;;;;;;21.48;8.18;;;;;;;;;;4981621;28;20042;-73
2022/11/22 12:37:00;;;;;;;28.70;11.43;;;;;;;;;;4998797;28;20040;-74
2022/11/22 12:39:26;;;;;;;19.25;8.57;;;;;;;;;;4972909;28;20363;-72
2022/11/22 12:41:53;;;;;;;11.98;5.20;;;;;;;;;;4972727;28;20613;-72
2022/11/22 12:44:40;;;;;;;39.08;14.15;;;;;;;;;;4984304;28;20882;-70
2022/11/22 12:47:12;;;;;;;17.35;6.32;;;;;;;;;;4977898;28;20082;-73
2022/11/22 12:49:40;;;;;;;24.50;9.70;;;;;;;;;;4986584;28;20044;-73
2022/11/22 12:52:10;;;;;;;26.25;9.93;;;;;;;;;;4975795;28;20518;-72
2022/11/22 12:54:43;;;;;;;16.27;7.88;;;;;;;;;;4979043;28;20052;-72
2022/11/22 12:57:08;;;;;;;;;;;;;;;;;;4998942;28;20040;-72
2022/11/22 12:59:36;;;;;;;27.23;11.10;;;;;;;;;;4999097;28;19917;-72
2022/11/22 13:02:20;;;;;;;27.75;10.30;;;;;;;;;;4996996;28;20036;-73
2022/11/22 13:04:55;;;;;;;23.98;10.65;;;;;;;;;;4998327;28;20310;-72
2022/11/22 13:07:32;;;;;;;20.40;8.68;;;;;;;;;;4998220;28;20033;-72
2022/11/22 13:10:04;;;;;;;23.50;10.30;;;;;;;;;;4983610;28;20158;-73
2022/11/22 13:12:34;;;;;;;22.33;9.90;;;;;;;;;;4977372;28;20053;-72
2022/11/22 13:15:01;;;;;;;22.15;9.40;;;;;;;;;;4972192;28;20331;-71
2022/11/22 13:17:33;;;;;;;17.92;7.95;;;;;;;;;;4977602;28;20034;-72
2022/11/22 13:20:01;;;;;;;63.10;19.85;;;;;;;;;;4969034;28;20044;-72
2022/11/22 13:22:49;;;;;;;26.83;10.82;;;;;;;;;;5005585;28;20411;-73
2022/11/22 13:25:17;;;;;;;20.60;8.80;;;;;;;;;;4978791;28;20549;-73
2022/11/22 13:27:45;;;;;;;25.08;10.32;;;;;;;;;;4975353;28;20170;-74
2022/11/22 13:30:19;;;;;;;18.38;8.43;;;;;;;;;;4980932;28;20757;-73
2022/11/22 13:32:48;;;;;;;18.27;7.00;;;;;;;;;;4975422;28;20338;-72
2022/11/22 13:35:13;;;;;;;24.90;10.38;;;;;;;;;;4975902;28;20038;-72
2022/11/22 13:37:43;;;;;;;18.15;6.32;;;;;;;;;;4980050;28;20044;-72
2022/11/22 13:40:14;;;;;;;18.00;7.85;;;;;;;;;;4976594;28;20094;-73
2022/11/22 13:42:39;;;;;;;18.30;8.80;;;;;;;;;;4994055;28;20543;-72
2022/11/22 13:45:11;;;;;;;23.80;8.05;;;;;;;;;;4978263;28;20034;-71
2022/11/22 13:47:38;;;;;;;25.23;9.60;;;;;;;;;;4977549;28;22028;-72
2022/11/22 13:50:23;;;;;;;16.35;7.13;;;;;;;;;;4977121;28;20128;-71
2022/11/22 13:52:52;;;;;;;19.40;8.60;;;;;;;;;;4994477;28;20048;-71
2022/11/22 13:55:28;;;;;;;13.82;7.25;;;;;;;;;;5015591;28;22175;-71
2022/11/22 13:57:54;;;;;;;14.30;7.22;;;;;;;;;;4999353;28;21201;-71
2022/11/22 14:00:20;;;;;;;14.40;6.68;;;;;;;;;;5010099;28;20449;-72
2022/11/22 14:02:52;;;;;;;19.42;7.97;;;;;;;;;;5007782;28;20502;-70
2022/11/22 14:05:33;;;;;;;17.50;7.20;;;;;;;;;;4999195;28;20576;-70
2022/11/22 14:08:00;;;;;;;13.80;6.10;;;;;;;;;;4996289;28;20064;-71
2022/11/22 14:10:33;;;;;;;13.05;6.50;;;;;;;;;;5001358;28;20065;-71
2022/11/22 14:13:06;;;;;;;25.55;9.38;;;;;;;;;;4990687;28;20132;-71
2022/11/22 14:16:07;;;;;;;21.33;8.95;;;;;;;;;;5000397;28;20283;-71
2022/11/22 14:18:39;;;;;;;18.17;7.57;;;;;;;;;;4964186;28;20042;-71
2022/11/22 14:21:23;;;;;;;43.60;16.20;;;;;;;;;;5008972;28;20107;-71
2022/11/22 14:24:04;;;;;;;27.88;10.52;;;;;;;;;;5004706;28;20156;-70
2022/11/22 14:26:47;;;;;;;21.35;9.55;;;;;;;;;;5004738;28;20329;-71
2022/11/22 14:29:31;;;;;;;23.88;10.30;;;;;;;;;;4996829;28;20037;-69
2022/11/22 14:32:00;;;;;;;14.60;7.47;;;;;;;;;;4993228;28;20309;-69
2022/11/22 14:34:27;;;;;;;21.65;9.25;;;;;;;;;;4975720;28;20057;-68
2022/11/22 14:37:11;;;;;;;28.13;9.77;;;;;;;;;;5005816;28;20034;-68
2022/11/22 14:39:52;;;;;;;19.00;7.47;;;;;;;;;;4978086;28;20045;-68
2022/11/22 14:42:50;;;;;;;34.63;12.23;;;;;;;;;;4973655;28;20037;-68
2022/11/22 14:45:24;;;;;;;14.68;7.43;;;;;;;;;;4996425;28;20037;-70
2022/11/22 14:47:52;;;;;;;19.08;8.77;;;;;;;;;;4997232;28;20347;-71